createdAt,value
2023-08-08T00:00:54.123Z,89.05
2023-08-08T00:03:26.530Z,89.24
2023-08-08T00:05:56.448Z,89.57
2023-08-08T00:08:26.295Z,89.65
2023-08-08T00:10:56.189Z,89.91
2023-08-08T00:13:26.397Z,89.71
2023-08-08T00:15:56.310Z,89.91
2023-08-08T00:18:28.691Z,90.07
2023-08-08T00:20:58.423Z,89.88
2023-08-08T00:23:28.173Z,89.59
2023-08-08T00:25:57.919Z,89.61
2023-08-08T00:28:27.725Z,89.50
2023-08-08T00:30:57.495Z,89.64
2023-08-08T00:33:30.080Z,89.70
2023-08-08T00:36:00.026Z,90.02
2023-08-08T00:38:30.427Z,90.10
2023-08-08T00:41:00.218Z,90.55
2023-08-08T00:43:29.996Z,90.58
2023-08-08T00:46:00.029Z,90.91
2023-08-08T00:48:32.394Z,90.93
2023-08-08T00:51:03.537Z,91.24
2023-08-08T00:53:34.050Z,91.56
2023-08-08T00:56:03.967Z,91.70
2023-08-08T00:58:33.760Z,91.97
2023-08-08T01:01:04.512Z,92.33
2023-08-08T01:03:36.894Z,92.55
2023-08-08T01:06:12.693Z,92.89
2023-08-08T01:08:47.270Z,93.23
2023-08-08T01:11:18.022Z,93.39
2023-08-08T01:13:48.253Z,93.52
2023-08-08T01:16:19.962Z,93.59
2023-08-08T01:18:53.283Z,93.58
2023-08-08T01:21:23.071Z,94.04
2023-08-08T01:23:57.957Z,94.20
2023-08-08T01:26:30.679Z,94.43
2023-08-08T01:29:00.666Z,94.55
2023-08-08T01:31:32.042Z,94.58
2023-08-08T01:34:01.868Z,94.64
2023-08-08T01:36:36.348Z,94.76
2023-08-08T01:39:06.957Z,94.70
2023-08-08T01:41:41.913Z,94.66
2023-08-08T01:44:12.441Z,94.75
2023-08-08T01:46:42.682Z,94.94
2023-08-08T01:49:12.475Z,95.10
2023-08-08T01:51:42.391Z,95.19
2023-08-08T01:54:12.214Z,95.48
2023-08-08T01:56:44.560Z,95.56
2023-08-08T01:59:16.015Z,95.67
2023-08-08T02:01:46.091Z,95.83
2023-08-08T02:04:15.992Z,95.86
2023-08-08T02:06:45.982Z,96.00
2023-08-08T02:09:16.263Z,96.29
2023-08-08T02:11:48.789Z,96.43
2023-08-08T02:14:18.614Z,96.67
2023-08-08T02:16:48.400Z,96.88
2023-08-08T02:19:18.680Z,96.85
2023-08-08T02:21:48.635Z,96.83
2023-08-08T02:24:21.433Z,96.55
2023-08-08T02:26:53.788Z,96.62
2023-08-08T02:29:23.833Z,96.53
2023-08-08T02:31:53.658Z,96.45
2023-08-08T02:34:23.436Z,96.44
2023-08-08T02:36:53.550Z,96.37
2023-08-08T02:39:23.324Z,96.40
2023-08-08T02:41:55.812Z,96.60
2023-08-08T02:44:27.014Z,96.53
2023-08-08T02:46:57.226Z,96.72
2023-08-08T02:49:27.168Z,96.85
2023-08-08T02:51:57.455Z,96.68
2023-08-08T02:54:30.224Z,96.37
2023-08-08T02:57:02.728Z,96.25
2023-08-08T02:59:32.993Z,96.22
2023-08-08T03:02:06.383Z,96.20
2023-08-08T03:04:38.249Z,96.05
2023-08-08T03:07:10.150Z,96.20
2023-08-08T03:09:41.179Z,96.15
2023-08-08T03:12:16.037Z,96.09
2023-08-08T03:14:46.380Z,96.23
2023-08-08T03:17:17.553Z,96.24
2023-08-08T03:19:47.997Z,96.22
2023-08-08T03:22:18.666Z,96.12
2023-08-08T03:24:48.988Z,96.17
2023-08-08T03:27:21.373Z,96.23
2023-08-08T03:29:55.171Z,96.01
2023-08-08T03:32:25.997Z,95.72
2023-08-08T03:34:55.967Z,95.69
2023-08-08T03:37:25.929Z,95.60
2023-08-08T03:39:55.853Z,95.15
2023-08-08T03:42:28.201Z,95.22
2023-08-08T03:44:58.047Z,94.77
2023-08-08T03:47:28.090Z,94.75
2023-08-08T03:49:59.985Z,94.60
2023-08-08T03:52:30.510Z,94.47
2023-08-08T03:55:01.442Z,94.42
2023-08-08T03:57:34.060Z,94.13
2023-08-08T04:00:03.938Z,93.82
2023-08-08T04:02:43.282Z,93.56
2023-08-08T04:05:13.517Z,93.36
2023-08-08T04:07:43.314Z,93.16
2023-08-08T04:10:14.478Z,92.93
2023-08-08T04:12:46.830Z,92.61
2023-08-08T04:15:16.635Z,92.70
2023-08-08T04:17:46.531Z,92.28
2023-08-08T04:20:17.064Z,92.36
2023-08-08T04:22:46.840Z,92.18
2023-08-08T04:25:16.680Z,92.25
2023-08-08T04:27:49.209Z,91.99
2023-08-08T04:30:19.121Z,92.06
2023-08-08T04:32:49.225Z,91.94
2023-08-08T04:35:19.185Z,91.95
2023-08-08T04:37:49.204Z,91.83
2023-08-08T04:40:19.190Z,92.03
2023-08-08T04:42:51.590Z,91.68
2023-08-08T04:45:22.271Z,91.62
2023-08-08T04:47:52.161Z,91.73
2023-08-08T04:50:22.032Z,91.58
2023-08-08T04:52:51.802Z,91.38
2023-08-08T04:55:21.786Z,91.65
2023-08-08T04:57:54.199Z,91.58
2023-08-08T05:00:24.023Z,91.62
2023-08-08T05:02:53.867Z,91.51
2023-08-08T05:05:23.668Z,91.75
2023-08-08T05:07:53.419Z,91.69
2023-08-08T05:10:24.153Z,91.51
2023-08-08T05:12:56.523Z,91.65
2023-08-08T05:15:26.279Z,91.44
2023-08-08T05:17:56.476Z,91.43
2023-08-08T05:20:26.243Z,91.54
2023-08-08T05:22:56.022Z,91.39
2023-08-08T05:25:26.214Z,91.38
2023-08-08T05:27:58.646Z,91.25
2023-08-08T05:30:28.519Z,91.36
2023-08-08T05:32:58.411Z,91.37
2023-08-08T05:35:28.305Z,91.35
2023-08-08T05:37:58.049Z,91.30
2023-08-08T05:40:27.826Z,90.92
2023-08-08T05:43:00.192Z,90.91
2023-08-08T05:45:29.960Z,90.90
2023-08-08T05:48:01.651Z,91.08
2023-08-08T05:50:31.590Z,91.14
2023-08-08T05:53:01.482Z,91.17
2023-08-08T05:55:31.244Z,91.31
2023-08-08T05:58:03.684Z,91.08
2023-08-08T06:00:34.200Z,91.00
2023-08-08T06:03:04.336Z,90.97
2023-08-08T06:05:34.438Z,90.76
2023-08-08T06:08:05.421Z,91.07
2023-08-08T06:10:35.955Z,90.98
2023-08-08T06:13:08.652Z,90.83
2023-08-08T06:15:38.561Z,91.15
2023-08-08T06:18:09.055Z,90.94
2023-08-08T06:20:38.995Z,91.01
2023-08-08T06:23:08.789Z,90.87
2023-08-08T06:25:39.900Z,91.00
2023-08-08T06:28:12.777Z,90.72
2023-08-08T06:30:42.690Z,90.62
2023-08-08T06:33:12.518Z,90.79
2023-08-08T06:35:43.288Z,90.92
2023-08-08T06:38:13.179Z,90.69
2023-08-08T06:40:42.924Z,90.73
2023-08-08T06:43:15.413Z,90.75
2023-08-08T06:45:45.241Z,90.68
2023-08-08T06:48:15.102Z,90.42
2023-08-08T06:50:44.877Z,90.30
2023-08-08T06:53:15.060Z,90.26
2023-08-08T06:55:44.831Z,90.14
2023-08-08T06:58:17.269Z,90.03
2023-08-08T07:00:47.126Z,89.93
2023-08-08T07:03:17.043Z,89.63
2023-08-08T07:05:47.149Z,89.72
2023-08-08T07:08:16.971Z,89.61
2023-08-08T07:10:46.811Z,89.33
2023-08-08T07:13:19.322Z,88.96
2023-08-08T07:15:49.239Z,88.59
2023-08-08T07:18:19.005Z,88.04
2023-08-08T07:20:48.917Z,87.95
2023-08-08T07:23:18.713Z,87.86
2023-08-08T07:25:51.435Z,87.08
2023-08-08T07:28:24.061Z,86.62
2023-08-08T07:30:53.853Z,86.24
2023-08-08T07:33:23.628Z,85.63
2023-08-08T07:35:53.418Z,85.71
2023-08-08T07:38:23.206Z,85.36
2023-08-08T07:40:53.307Z,85.34
2023-08-08T07:43:25.669Z,85.34
2023-08-08T07:45:55.454Z,85.21
2023-08-08T07:48:25.220Z,85.23
2023-08-08T07:50:55.110Z,84.86
2023-08-08T07:53:24.857Z,84.55
2023-08-08T07:55:54.691Z,84.44
2023-08-08T07:58:28.415Z,83.63
2023-08-08T08:00:58.513Z,83.19
2023-08-08T08:03:28.537Z,83.04
2023-08-08T08:05:58.428Z,82.25
2023-08-08T08:08:28.501Z,81.70
2023-08-08T08:10:58.349Z,81.58
2023-08-08T08:13:30.735Z,81.54
2023-08-08T08:16:00.666Z,81.50
2023-08-08T08:18:30.435Z,81.63
2023-08-08T08:21:00.286Z,82.02
2023-08-08T08:23:30.168Z,82.05
2023-08-08T08:25:59.920Z,82.02
2023-08-08T08:28:32.372Z,82.11
2023-08-08T08:31:08.168Z,81.62
2023-08-08T08:33:37.936Z,81.81
2023-08-08T08:36:08.103Z,81.39
2023-08-08T08:38:37.891Z,80.85
2023-08-08T08:41:07.798Z,80.65
2023-08-08T08:43:40.195Z,78.78
2023-08-08T08:46:10.627Z,76.05
2023-08-08T08:48:40.701Z,74.33
2023-08-08T08:51:10.851Z,73.19
2023-08-08T08:53:47.601Z,72.46
2023-08-08T08:56:18.088Z,72.83
2023-08-08T08:58:50.486Z,73.14
2023-08-08T09:01:21.564Z,73.05
2023-08-08T09:03:51.548Z,73.99
2023-08-08T09:06:22.133Z,74.24
2023-08-08T09:08:55.304Z,74.54
2023-08-08T09:11:27.497Z,74.63
2023-08-08T09:14:01.064Z,74.46
2023-08-08T09:16:30.954Z,74.21
2023-08-08T09:19:02.156Z,74.86
2023-08-08T09:21:31.958Z,75.15
2023-08-08T09:24:02.069Z,75.31
2023-08-08T09:26:32.329Z,75.20
2023-08-08T09:29:05.137Z,74.47
2023-08-08T09:31:34.968Z,74.15
2023-08-08T09:34:07.304Z,73.63
2023-08-08T09:36:38.849Z,73.38
2023-08-08T09:39:09.259Z,73.82
2023-08-08T09:41:39.081Z,73.84
2023-08-08T09:44:12.366Z,73.67
2023-08-08T09:46:42.871Z,73.68
2023-08-08T09:49:13.734Z,73.94
2023-08-08T09:51:43.977Z,74.09
2023-08-08T09:54:14.379Z,74.68
2023-08-08T09:56:44.236Z,74.43
2023-08-08T09:59:17.203Z,74.29
2023-08-08T10:01:47.383Z,74.29
2023-08-08T10:04:17.405Z,73.88
2023-08-08T10:06:47.249Z,71.66
2023-08-08T10:09:17.660Z,69.31
2023-08-08T10:11:47.900Z,68.47
2023-08-08T10:14:20.840Z,67.44
2023-08-08T10:16:51.776Z,66.40
2023-08-08T10:19:26.057Z,66.07
2023-08-08T10:22:01.307Z,66.53
2023-08-08T10:24:37.176Z,66.06
2023-08-08T10:27:08.177Z,65.80
2023-08-08T10:29:42.474Z,66.27
2023-08-08T10:32:12.343Z,66.15
2023-08-08T10:34:45.177Z,66.71
2023-08-08T10:37:16.789Z,68.34
2023-08-08T10:39:58.177Z,69.30
2023-08-08T10:42:29.440Z,70.56
2023-08-08T10:45:03.712Z,71.09
2023-08-08T10:47:35.752Z,71.88
2023-08-08T10:50:11.107Z,72.15
2023-08-08T10:52:43.308Z,72.68
2023-08-08T10:55:22.490Z,72.68
2023-08-08T10:57:59.813Z,72.18
2023-08-08T11:00:33.968Z,72.34
2023-08-08T11:03:05.915Z,71.76
2023-08-08T11:05:37.204Z,71.46
2023-08-08T11:08:10.441Z,71.62
2023-08-08T11:10:40.742Z,71.06
2023-08-08T11:13:11.610Z,70.54
2023-08-08T11:15:44.045Z,69.16
2023-08-08T11:18:14.305Z,67.98
2023-08-08T11:20:45.535Z,67.38
2023-08-08T11:23:15.450Z,66.70
2023-08-08T11:25:46.855Z,65.78
2023-08-08T11:28:17.213Z,65.34
2023-08-08T11:30:50.027Z,65.26
2023-08-08T11:33:20.073Z,65.38
2023-08-08T11:35:50.823Z,65.07
2023-08-08T11:38:21.644Z,63.97
2023-08-08T11:40:53.600Z,63.35
2023-08-08T11:43:24.014Z,63.10
2023-08-08T11:45:56.768Z,63.19
2023-08-08T11:48:26.884Z,63.30
2023-08-08T11:50:56.968Z,63.29
2023-08-08T11:53:27.373Z,62.88
2023-08-08T11:55:58.557Z,63.65
2023-08-08T11:58:28.434Z,63.53
2023-08-08T12:01:01.424Z,64.00
2023-08-08T12:03:31.293Z,64.28
2023-08-08T12:06:02.246Z,64.34
2023-08-08T12:08:34.465Z,64.77
2023-08-08T12:11:06.594Z,64.61
2023-08-08T12:13:37.954Z,64.51
2023-08-08T12:16:16.904Z,64.75
2023-08-08T12:18:47.978Z,65.77
2023-08-08T12:21:17.840Z,66.56
2023-08-08T12:23:47.571Z,67.93
2023-08-08T12:26:17.350Z,68.88
2023-08-08T12:28:47.098Z,69.78
2023-08-08T12:31:19.485Z,71.20
2023-08-08T12:33:50.151Z,72.32
2023-08-08T12:36:20.027Z,72.71
2023-08-08T12:38:50.376Z,73.69
2023-08-08T12:41:20.267Z,75.44
2023-08-08T12:43:51.147Z,76.94
2023-08-08T12:46:23.675Z,78.15
2023-08-08T12:48:53.872Z,78.96
2023-08-08T12:51:23.740Z,79.40
2023-08-08T12:53:54.136Z,79.92
2023-08-08T12:56:23.900Z,80.09
2023-08-08T12:58:53.652Z,79.89
2023-08-08T13:01:26.404Z,79.87
2023-08-08T13:06:33.046Z,79.02
2023-08-08T13:09:02.810Z,78.67
2023-08-08T13:11:32.696Z,78.36
2023-08-08T13:14:02.482Z,77.93
2023-08-08T13:16:35.138Z,77.07
2023-08-08T13:19:05.331Z,76.31
2023-08-08T13:21:35.119Z,75.65
2023-08-08T13:24:05.432Z,75.30
2023-08-08T13:26:35.279Z,74.79
2023-08-08T13:29:04.999Z,74.67
2023-08-08T13:31:37.467Z,73.95
2023-08-08T13:34:07.647Z,74.42
2023-08-08T13:36:37.494Z,74.06
2023-08-08T13:39:08.209Z,73.08
2023-08-08T13:41:37.967Z,72.46
2023-08-08T13:44:08.341Z,72.12
2023-08-08T13:46:40.850Z,71.75
2023-08-08T13:49:10.671Z,71.63
2023-08-08T13:51:41.712Z,71.58
2023-08-08T13:54:13.602Z,71.35
2023-08-08T13:56:43.404Z,71.40
2023-08-08T13:59:13.236Z,71.47
2023-08-08T14:01:45.813Z,71.55
2023-08-08T14:04:15.609Z,71.58
2023-08-08T14:06:45.387Z,71.60
2023-08-08T14:09:17.168Z,71.58
2023-08-08T14:11:48.624Z,71.00
2023-08-08T14:14:18.399Z,70.37
2023-08-08T14:16:50.907Z,69.90
2023-08-08T14:19:20.892Z,69.27
2023-08-08T14:21:50.967Z,68.47
2023-08-08T14:24:21.245Z,67.62
2023-08-08T14:26:51.037Z,67.30
2023-08-08T14:29:20.783Z,66.31
2023-08-08T14:32:00.463Z,65.85
2023-08-08T14:34:34.918Z,65.47
2023-08-08T14:37:05.710Z,65.28
2023-08-08T14:39:35.551Z,64.00
2023-08-08T14:42:05.637Z,63.42
2023-08-08T14:44:35.688Z,63.55
2023-08-08T14:47:08.832Z,62.90
2023-08-08T14:49:38.787Z,62.78
2023-08-08T14:52:10.027Z,62.61
2023-08-08T14:54:39.818Z,63.06
2023-08-08T14:57:09.687Z,62.97
2023-08-08T14:59:39.424Z,63.17
2023-08-08T15:02:11.854Z,62.78
2023-08-08T15:04:41.713Z,61.98
2023-08-08T15:07:11.498Z,61.40
2023-08-08T15:09:41.349Z,60.97
2023-08-08T15:12:12.040Z,60.79
2023-08-08T15:14:41.771Z,60.54
2023-08-08T15:17:14.146Z,59.99
2023-08-08T15:19:43.987Z,59.05
2023-08-08T15:22:14.014Z,59.12
2023-08-08T15:24:44.272Z,59.04
2023-08-08T15:27:14.005Z,58.33
2023-08-08T15:29:43.722Z,58.34
2023-08-08T15:32:16.092Z,57.83
2023-08-08T15:34:45.820Z,57.90
2023-08-08T15:37:15.587Z,57.76
2023-08-08T15:39:45.347Z,57.73
2023-08-08T15:42:15.114Z,57.48
2023-08-08T15:44:44.872Z,58.07
2023-08-08T15:47:17.290Z,57.02
2023-08-08T15:49:47.093Z,57.40
2023-08-08T15:52:16.893Z,56.99
2023-08-08T15:54:46.666Z,56.19
2023-08-08T15:57:16.432Z,55.76
2023-08-08T15:59:46.212Z,55.81
2023-08-08T16:02:19.262Z,55.56
2023-08-08T16:04:50.104Z,55.90
2023-08-08T16:07:20.707Z,55.67
2023-08-08T16:09:50.597Z,55.25
2023-08-08T16:12:20.422Z,55.94
2023-08-08T16:14:50.154Z,55.98
2023-08-08T16:17:22.549Z,55.88
2023-08-08T16:19:52.333Z,56.06
2023-08-08T16:22:22.094Z,56.03
2023-08-08T16:24:51.845Z,56.14
2023-08-08T16:27:21.620Z,56.23
2023-08-08T16:29:51.538Z,56.14
2023-08-08T16:32:23.880Z,56.12
2023-08-08T16:34:53.682Z,55.56
2023-08-08T16:37:23.628Z,55.28
2023-08-08T16:39:53.633Z,55.24
2023-08-08T16:42:24.005Z,55.37
2023-08-08T16:44:53.824Z,55.47
2023-08-08T16:47:26.172Z,54.88
2023-08-08T16:49:55.982Z,55.15
2023-08-08T16:52:25.967Z,54.88
2023-08-08T16:54:55.788Z,55.28
2023-08-08T16:57:25.555Z,55.24
2023-08-08T16:59:55.543Z,55.65
2023-08-08T17:02:28.086Z,55.24
2023-08-08T17:04:57.852Z,56.10
2023-08-08T17:07:30.465Z,56.01
2023-08-08T17:10:00.406Z,56.09
2023-08-08T17:12:30.410Z,56.37
2023-08-08T17:15:00.193Z,56.56
2023-08-08T17:17:32.643Z,56.96
2023-08-08T17:20:05.419Z,57.43
2023-08-08T17:22:35.618Z,57.76
2023-08-08T17:25:05.428Z,58.67
2023-08-08T17:27:36.824Z,59.01
2023-08-08T17:30:10.006Z,59.55
2023-08-08T17:32:42.943Z,59.91
2023-08-08T17:35:13.430Z,60.69
2023-08-08T17:37:43.257Z,60.72
2023-08-08T17:40:13.753Z,60.78
2023-08-08T17:42:43.653Z,61.07
2023-08-08T17:45:16.539Z,61.53
2023-08-08T17:47:48.938Z,62.07
2023-08-08T17:50:18.944Z,62.50
2023-08-08T17:52:49.047Z,62.79
2023-08-08T17:55:19.595Z,62.97
2023-08-08T17:57:51.271Z,63.50
2023-08-08T18:00:22.918Z,63.51
2023-08-08T18:02:56.935Z,63.46
2023-08-08T18:05:27.065Z,63.55
2023-08-08T18:07:57.044Z,63.73
2023-08-08T18:10:27.070Z,63.68
2023-08-08T18:12:57.029Z,63.71
2023-08-08T18:15:26.820Z,63.84
2023-08-08T18:17:59.685Z,64.52
2023-08-08T18:20:29.570Z,65.16
2023-08-08T18:22:59.508Z,65.63
2023-08-08T18:25:29.785Z,65.97
2023-08-08T18:27:59.597Z,66.06
2023-08-08T18:30:29.658Z,66.22
2023-08-08T18:33:02.128Z,66.74
2023-08-08T18:35:32.142Z,66.43
2023-08-08T18:38:02.084Z,66.80
2023-08-08T18:40:31.951Z,67.04
2023-08-08T18:43:02.129Z,67.31
2023-08-08T18:45:32.003Z,67.80
2023-08-08T18:48:04.503Z,67.74
2023-08-08T18:50:34.367Z,67.78
2023-08-08T18:53:04.607Z,67.99
2023-08-08T18:55:34.426Z,68.45
2023-08-08T18:58:04.457Z,68.14
2023-08-08T19:00:34.277Z,68.83
2023-08-08T19:03:07.427Z,68.98
2023-08-08T19:05:37.333Z,69.60
2023-08-08T19:08:07.749Z,70.23
2023-08-08T19:10:37.727Z,70.40
2023-08-08T19:13:07.954Z,71.13
2023-08-08T19:15:37.773Z,71.65
2023-08-08T19:18:10.407Z,71.98
2023-08-08T19:20:40.381Z,72.22
2023-08-08T19:23:11.409Z,72.81
2023-08-08T19:25:41.389Z,72.83
2023-08-08T19:28:11.739Z,73.80
2023-08-08T19:30:41.736Z,74.19
2023-08-08T19:33:16.811Z,74.51
2023-08-08T19:35:46.638Z,74.76
2023-08-08T19:38:16.455Z,75.27
2023-08-08T19:40:46.323Z,75.89
2023-08-08T19:43:16.792Z,76.07
2023-08-08T19:45:49.276Z,76.36
2023-08-08T19:48:21.701Z,76.46
2023-08-08T19:50:51.729Z,76.76
2023-08-08T19:53:22.057Z,77.45
2023-08-08T19:55:54.046Z,77.36
2023-08-08T19:58:26.282Z,78.14
2023-08-08T20:00:56.807Z,78.73
2023-08-08T20:03:30.883Z,79.01
2023-08-08T20:06:01.021Z,80.07
2023-08-08T20:08:32.241Z,81.18
2023-08-08T20:11:02.128Z,81.91
2023-08-08T20:13:31.953Z,82.80
2023-08-08T20:16:01.800Z,83.67
2023-08-08T20:18:34.568Z,84.19
2023-08-08T20:21:05.485Z,84.89
2023-08-08T20:23:35.360Z,85.51
2023-08-08T20:26:05.589Z,86.00
2023-08-08T20:28:35.418Z,86.60
2023-08-08T20:31:07.800Z,87.14
2023-08-08T20:33:46.193Z,87.95
2023-08-08T20:36:16.914Z,88.39
2023-08-08T20:38:47.646Z,88.47
2023-08-08T20:41:17.492Z,88.81
2023-08-08T20:43:48.184Z,89.25
2023-08-08T20:46:18.095Z,89.85
2023-08-08T20:48:52.121Z,90.07
2023-08-08T20:51:22.326Z,90.27
2023-08-08T20:53:52.274Z,90.78
2023-08-08T20:56:22.111Z,91.10
2023-08-08T20:58:53.582Z,91.23
2023-08-08T21:01:23.477Z,92.09
2023-08-08T21:03:56.017Z,92.53
2023-08-08T21:06:25.908Z,92.91
2023-08-08T21:08:55.832Z,93.33
2023-08-08T21:11:25.615Z,93.44
2023-08-08T21:13:55.421Z,93.98
2023-08-08T21:16:25.343Z,94.35
2023-08-08T21:18:57.996Z,94.73
2023-08-08T21:21:28.022Z,94.72
2023-08-08T21:23:58.065Z,94.75
2023-08-08T21:26:38.402Z,95.14
2023-08-08T21:29:09.903Z,95.27
2023-08-08T21:31:39.849Z,95.25
2023-08-08T21:34:12.513Z,95.41
2023-08-08T21:36:43.118Z,95.52
2023-08-08T21:39:12.906Z,95.63
2023-08-08T21:41:42.710Z,95.71
2023-08-08T21:44:12.693Z,95.76
2023-08-08T21:46:42.483Z,96.12
2023-08-08T21:49:15.132Z,96.17
2023-08-08T21:51:45.233Z,96.13
2023-08-08T21:54:15.262Z,96.64
2023-08-08T21:56:46.674Z,96.59
2023-08-08T21:59:16.616Z,96.92
2023-08-08T22:01:46.680Z,96.90
2023-08-08T22:04:19.511Z,96.87
2023-08-08T22:06:49.587Z,97.26
2023-08-08T22:09:19.673Z,97.21
2023-08-08T22:11:49.489Z,97.33
2023-08-08T22:14:19.788Z,97.62
2023-08-08T22:16:49.645Z,97.78
2023-08-08T22:19:22.777Z,97.94
2023-08-08T22:21:52.815Z,98.07
2023-08-08T22:24:22.708Z,98.16
2023-08-08T22:26:52.543Z,98.31
2023-08-08T22:29:22.642Z,98.39
2023-08-08T22:31:54.971Z,98.52
2023-08-08T22:34:27.679Z,98.81
2023-08-08T22:36:57.536Z,98.66
2023-08-08T22:39:27.382Z,99.00
2023-08-08T22:41:57.197Z,99.10
2023-08-08T22:44:27.006Z,99.62
2023-08-08T22:46:56.938Z,99.32
2023-08-08T22:49:29.523Z,99.69
2023-08-08T22:51:59.533Z,99.63
2023-08-08T22:54:29.431Z,99.73
2023-08-08T22:56:59.485Z,99.85
2023-08-08T22:59:29.659Z,100.00
2023-08-08T23:02:01.356Z,100.00
2023-08-08T23:04:33.849Z,100.00
2023-08-08T23:07:03.864Z,100.00
2023-08-08T23:09:34.181Z,100.00
2023-08-08T23:12:04.347Z,100.00
2023-08-08T23:14:34.228Z,100.00
2023-08-08T23:17:04.371Z,100.00
2023-08-08T23:19:36.877Z,100.00
2023-08-08T23:22:06.865Z,100.00
2023-08-08T23:24:36.727Z,100.00
2023-08-08T23:27:06.797Z,100.00
2023-08-08T23:29:36.911Z,100.00
2023-08-08T23:32:07.553Z,100.00
2023-08-08T23:34:39.966Z,100.00
2023-08-08T23:37:19.794Z,100.00
2023-08-08T23:39:52.098Z,100.00
2023-08-08T23:42:21.965Z,100.00
2023-08-08T23:44:52.260Z,100.00
2023-08-08T23:47:23.061Z,100.00
2023-08-08T23:49:58.240Z,100.00
2023-08-08T23:52:28.497Z,100.00
2023-08-08T23:54:58.322Z,100.00
2023-08-08T23:57:28.331Z,100.00
2023-08-08T23:59:58.159Z,100.00
